DAAP

Illizi Takhamalt Airport

Illizi, Algeria
METAR DAAP 170700Z 21002KT 8000 FEW046 SCT233 10/06 Q1020
Observed Flight Rules
Dec-17 @ 07:00 UTC (an hour ago) Marginal Visual Flight Rules
Wind Visibility Clouds
210° at 2 knots 7,998 meters
  • Few at 4,600' AGL
  • Scattered at 23,300' AGL
Temperatures Readings
Current 10°C / 50°F
Dewpoint 6°C / 43°F
Humidity 76%
Altimeter 30.12" Hg
Pressure 1020 hPa
Elevation 558
METAR DAAP 170700Z 21002KT 8000 FEW046 SCT233 10/06 Q1020
Observed Flight Rules
Dec-17 @ 07:00 UTC
(an hour ago)
MVFR
Wind Visibility
210° at 2 knots 7,998 meters
Clouds
  • Few at 4,600' AGL
  • Scattered at 23,300' AGL
Temperature Dewpoint
10°C / 50°F 6°C / 43°F
Humidity Altimeter Pressure
76% 30.12" Hg 1020 hPa